Time;durP1;ratioP1;P1;durP2;ratioP2;P2;SDS_P1;SDS_P2;PMS_P1;PMS_P2;Temp;Humidity;BMP_temperature;BMP_pressure;BME280_temperature;BME280_humidity;BME280_pressure;Samples;Min_cycle;Max_cycle;Signal;HPM_P1;HPM_P2
2022/11/02 00:01:45;;;;;;;6.55;2.85;;;;;;;;;;5023273;28;20029;-74
2022/11/02 00:04:30;;;;;;;7.13;2.25;;;;;;;;;;5015977;28;20026;-67
2022/11/02 00:07:16;;;;;;;4.00;2.03;;;;;;;;;;5028246;28;20601;-75
2022/11/02 00:10:01;;;;;;;5.72;2.13;;;;;;;;;;5017818;28;20029;-74
2022/11/02 00:12:46;;;;;;;4.53;2.40;;;;;;;;;;5033131;28;20024;-74
2022/11/02 00:15:33;;;;;;;5.28;2.40;;;;;;;;;;5045401;28;20055;-75
2022/11/02 00:18:18;;;;;;;4.70;2.10;;;;;;;;;;5048893;28;20087;-76
2022/11/02 00:21:04;;;;;;;8.60;2.20;;;;;;;;;;5031843;28;20072;-74
2022/11/02 00:23:49;;;;;;;7.18;2.35;;;;;;;;;;5025702;28;20135;-69
2022/11/02 00:26:35;;;;;;;5.43;2.08;;;;;;;;;;5030804;28;20025;-72
2022/11/02 00:29:22;;;;;;;3.15;1.60;;;;;;;;;;5029997;28;20475;-73
2022/11/02 00:32:07;;;;;;;6.35;2.03;;;;;;;;;;5030490;28;20043;-73
2022/11/02 00:34:52;;;;;;;8.82;1.63;;;;;;;;;;5042241;28;20028;-74
2022/11/02 00:37:37;;;;;;;5.18;1.65;;;;;;;;;;5030795;28;20095;-71
2022/11/02 00:40:23;;;;;;;8.85;3.35;;;;;;;;;;5028743;28;20581;-70
2022/11/02 00:43:08;;;;;;;4.72;1.92;;;;;;;;;;5029310;28;20125;-69
2022/11/02 00:45:53;;;;;;;5.97;2.17;;;;;;;;;;5031227;28;20041;-69
2022/11/02 00:48:38;;;;;;;7.35;2.05;;;;;;;;;;5018131;28;20040;-67
2022/11/02 00:51:24;;;;;;;7.75;1.88;;;;;;;;;;5028754;28;20488;-71
2022/11/02 00:54:09;;;;;;;3.50;2.03;;;;;;;;;;5031594;28;20029;-69
2022/11/02 00:56:54;;;;;;;5.47;1.77;;;;;;;;;;5021624;28;20040;-69
2022/11/02 00:59:39;;;;;;;5.38;2.00;;;;;;;;;;5025528;28;20522;-67
2022/11/02 01:02:24;;;;;;;16.95;2.95;;;;;;;;;;5023190;28;20502;-70
2022/11/02 01:05:10;;;;;;;10.35;1.85;;;;;;;;;;5026311;28;20037;-69
2022/11/02 01:07:56;;;;;;;4.63;2.00;;;;;;;;;;5028353;28;20139;-69
2022/11/02 01:10:41;;;;;;;4.60;2.05;;;;;;;;;;5031941;28;20031;-70
2022/11/02 01:13:26;;;;;;;4.80;1.70;;;;;;;;;;5028609;28;20025;-69
2022/11/02 01:16:12;;;;;;;4.35;1.85;;;;;;;;;;5030579;28;20036;-69
2022/11/02 01:18:58;;;;;;;5.18;1.95;;;;;;;;;;5031121;28;20029;-74
2022/11/02 01:21:43;;;;;;;3.85;2.03;;;;;;;;;;5029726;28;20025;-71
2022/11/02 01:24:28;;;;;;;6.30;1.80;;;;;;;;;;5028266;28;20068;-72
2022/11/02 01:27:14;;;;;;;5.47;1.90;;;;;;;;;;5030513;28;20498;-72
2022/11/02 01:29:59;;;;;;;11.35;2.05;;;;;;;;;;5031271;28;20024;-74
2022/11/02 01:32:44;;;;;;;3.08;1.77;;;;;;;;;;5028368;28;20037;-70
2022/11/02 01:35:29;;;;;;;5.35;1.73;;;;;;;;;;5032671;28;20035;-72
2022/11/02 01:38:15;;;;;;;5.28;1.85;;;;;;;;;;5027686;28;20124;-72
2022/11/02 01:41:00;;;;;;;3.83;1.88;;;;;;;;;;5031186;28;20472;-69
2022/11/02 01:43:46;;;;;;;6.97;2.47;;;;;;;;;;5028202;28;20123;-69
2022/11/02 01:46:41;;;;;;;10.02;2.05;;;;;;;;;;5030345;28;20040;-70
2022/11/02 01:49:27;;;;;;;4.75;1.60;;;;;;;;;;5031838;28;20032;-73
2022/11/02 01:52:21;;;;;;;5.30;2.35;;;;;;;;;;5029813;28;20043;-71
2022/11/02 01:55:12;;;;;;;5.32;2.17;;;;;;;;;;5030367;28;20032;-74
2022/11/02 01:58:08;;;;;;;6.90;2.15;;;;;;;;;;5028403;28;20049;-74
2022/11/02 02:00:53;;;;;;;2.65;1.42;;;;;;;;;;5043632;28;20428;-74
2022/11/02 02:03:40;;;;;;;3.28;1.50;;;;;;;;;;5023351;28;20028;-74
2022/11/02 02:06:25;;;;;;;9.20;2.92;;;;;;;;;;5031229;28;20036;-75
2022/11/02 02:09:12;;;;;;;6.90;2.20;;;;;;;;;;5031402;28;20036;-76
2022/11/02 02:11:57;;;;;;;6.75;2.17;;;;;;;;;;5025221;28;20679;-75
2022/11/02 02:14:42;;;;;;;6.82;1.85;;;;;;;;;;5026000;28;20091;-70
2022/11/02 02:17:33;;;;;;;6.85;2.28;;;;;;;;;;5026147;28;20347;-69
2022/11/02 02:20:33;;;;;;;4.90;2.22;;;;;;;;;;5025714;28;20040;-70
2022/11/02 02:23:33;;;;;;;5.93;2.25;;;;;;;;;;5029103;28;20130;-70
2022/11/02 02:26:34;;;;;;;9.57;2.45;;;;;;;;;;5034214;28;20551;-68
2022/11/02 02:29:19;;;;;;;5.45;2.00;;;;;;;;;;5030605;28;20071;-69
2022/11/02 02:32:08;;;;;;;4.65;2.05;;;;;;;;;;5033601;28;20118;-72
2022/11/02 02:34:56;;;;;;;3.20;1.70;;;;;;;;;;5034610;28;20637;-73
2022/11/02 02:38:02;;;;;;;6.70;1.90;;;;;;;;;;5032520;28;20082;-75
2022/11/02 02:40:50;;;;;;;7.60;2.45;;;;;;;;;;5032519;28;20035;-75
2022/11/02 02:43:39;;;;;;;3.58;1.77;;;;;;;;;;5025891;28;20044;-74
2022/11/02 02:46:28;;;;;;;3.88;1.88;;;;;;;;;;5033635;28;20124;-75
2022/11/02 02:49:16;;;;;;;6.30;1.83;;;;;;;;;;5032426;28;20033;-68
2022/11/02 02:52:02;;;;;;;3.13;1.50;;;;;;;;;;5028090;28;20050;-80
2022/11/02 02:54:48;;;;;;;7.32;1.90;;;;;;;;;;5031857;28;20032;-78
2022/11/02 02:57:34;;;;;;;3.83;1.58;;;;;;;;;;5032508;28;20028;-76
2022/11/02 03:00:20;;;;;;;4.97;3.00;;;;;;;;;;5023577;28;20291;-78
2022/11/02 03:03:14;;;;;;;3.55;1.95;;;;;;;;;;5026245;28;20037;-77
2022/11/02 03:06:08;;;;;;;4.80;2.33;;;;;;;;;;5032682;28;20086;-76
2022/11/02 03:09:00;;;;;;;4.90;2.25;;;;;;;;;;5026336;28;20036;-70
2022/11/02 03:11:50;;;;;;;6.68;1.80;;;;;;;;;;5032886;28;20119;-77
2022/11/02 03:14:35;;;;;;;6.70;2.13;;;;;;;;;;5032971;28;20025;-76
2022/11/02 03:17:33;;;;;;;4.43;1.85;;;;;;;;;;5031948;28;20033;-77
2022/11/02 03:20:22;;;;;;;6.60;2.58;;;;;;;;;;5031959;28;20041;-75
2022/11/02 03:23:07;;;;;;;;;;;;;;;;;;5019816;28;20064;-76
2022/11/02 03:25:58;;;;;;;3.28;1.60;;;;;;;;;;5031865;28;19913;-68
2022/11/02 03:28:43;;;;;;;5.80;1.80;;;;;;;;;;5029451;28;20163;-69
2022/11/02 03:31:32;;;;;;;5.50;2.05;;;;;;;;;;5046607;28;20025;-70
2022/11/02 03:34:27;;;;;;;9.23;2.47;;;;;;;;;;5031751;28;20052;-73
2022/11/02 03:37:17;;;;;;;6.60;1.90;;;;;;;;;;5037598;28;20123;-72
2022/11/02 03:40:02;;;;;;;7.00;2.83;;;;;;;;;;5030099;28;20037;-72
2022/11/02 03:42:49;;;;;;;7.85;2.20;;;;;;;;;;5026796;28;20033;-72
2022/11/02 03:45:36;;;;;;;5.97;1.58;;;;;;;;;;5033256;28;20036;-77
2022/11/02 03:48:23;;;;;;;5.95;1.95;;;;;;;;;;5030120;28;20041;-76
2022/11/02 03:51:11;;;;;;;5.35;1.92;;;;;;;;;;5032147;28;20120;-75
2022/11/02 03:54:12;;;;;;;5.35;1.90;;;;;;;;;;5027134;28;20484;-76
2022/11/02 03:56:59;;;;;;;3.97;1.98;;;;;;;;;;5025307;28;20032;-75
2022/11/02 03:59:45;;;;;;;3.97;1.60;;;;;;;;;;5025937;28;20519;-76
2022/11/02 04:02:30;;;;;;;5.22;2.22;;;;;;;;;;5032709;28;20036;-76
2022/11/02 04:05:16;;;;;;;4.03;1.95;;;;;;;;;;5026252;28;20037;-78
2022/11/02 04:08:19;;;;;;;3.67;2.08;;;;;;;;;;5023227;28;20044;-79
2022/11/02 04:20:17;;;;;;;8.27;1.95;;;;;;;;;;5026072;28;20033;-72
2022/11/02 04:26:06;;;;;;;3.55;1.90;;;;;;;;;;5031251;28;20036;-72
2022/11/02 04:28:51;;;;;;;5.03;2.22;;;;;;;;;;5031377;28;20033;-73
2022/11/02 04:31:36;;;;;;;6.00;2.10;;;;;;;;;;5027671;28;20068;-72
2022/11/02 04:34:22;;;;;;;3.15;1.70;;;;;;;;;;5030045;28;20029;-73
2022/11/02 04:38:39;;;;;;;6.45;2.55;;;;;;;;;;5034878;28;20041;-72
2022/11/02 04:40:12;;;;;;;6.97;2.30;;;;;;;;;;5028337;28;20060;-76
2022/11/02 04:42:57;;;;;;;8.32;2.88;;;;;;;;;;5031397;28;20480;-69
2022/11/02 04:45:42;;;;;;;3.83;2.28;;;;;;;;;;5030363;28;20025;-70
2022/11/02 04:48:28;;;;;;;3.03;1.63;;;;;;;;;;5027186;28;20063;-69
2022/11/02 04:51:13;;;;;;;4.93;1.80;;;;;;;;;;5032919;28;20037;-68
2022/11/02 04:53:58;;;;;;;7.03;2.60;;;;;;;;;;5019928;28;20025;-69
2022/11/02 04:56:44;;;;;;;7.63;1.90;;;;;;;;;;5021614;28;20556;-69
2022/11/02 04:59:29;;;;;;;4.15;2.08;;;;;;;;;;5032595;28;20535;-71
2022/11/02 05:02:14;;;;;;;5.45;2.38;;;;;;;;;;5032099;28;20040;-78
2022/11/02 05:04:59;;;;;;;9.55;2.63;;;;;;;;;;5033800;28;20036;-71
2022/11/02 05:07:44;;;;;;;3.53;1.80;;;;;;;;;;5035044;28;20041;-72
2022/11/02 05:10:29;;;;;;;5.38;2.10;;;;;;;;;;5033355;28;20132;-72
2022/11/02 05:13:15;;;;;;;4.40;2.15;;;;;;;;;;5025947;28;20035;-72
2022/11/02 05:16:00;;;;;;;4.32;2.13;;;;;;;;;;5024471;28;20060;-75
2022/11/02 05:18:45;;;;;;;4.32;1.88;;;;;;;;;;5026999;28;20037;-68
2022/11/02 05:21:30;;;;;;;5.65;1.75;;;;;;;;;;5031805;28;20044;-69
2022/11/02 05:24:16;;;;;;;5.10;2.10;;;;;;;;;;5030149;28;20040;-69
2022/11/02 05:27:01;;;;;;;8.07;2.67;;;;;;;;;;5030165;28;20044;-68
2022/11/02 05:29:46;;;;;;;4.13;1.77;;;;;;;;;;5032402;28;20079;-69
2022/11/02 05:32:31;;;;;;;5.15;1.90;;;;;;;;;;5034074;28;20112;-68
2022/11/02 05:35:17;;;;;;;8.10;1.92;;;;;;;;;;5030819;28;20082;-68
2022/11/02 05:38:02;;;;;;;6.22;2.00;;;;;;;;;;5030702;28;20041;-75
2022/11/02 05:40:51;;;;;;;5.22;2.25;;;;;;;;;;5020426;28;20538;-75
2022/11/02 05:43:36;;;;;;;3.75;2.42;;;;;;;;;;5041164;28;20036;-75
2022/11/02 05:46:21;;;;;;;7.78;2.05;;;;;;;;;;5034354;28;20049;-75
2022/11/02 05:49:06;;;;;;;6.03;2.30;;;;;;;;;;5024446;28;20045;-75
2022/11/02 05:51:52;;;;;;;5.72;2.53;;;;;;;;;;5029562;28;20025;-75
2022/11/02 05:54:37;;;;;;;6.20;2.95;;;;;;;;;;5032600;28;20025;-71
2022/11/02 05:57:22;;;;;;;7.03;2.20;;;;;;;;;;5034688;28;20108;-72
2022/11/02 06:00:08;;;;;;;5.57;2.05;;;;;;;;;;5027635;28;20492;-72
2022/11/02 06:02:57;;;;;;;3.63;1.95;;;;;;;;;;5041316;28;20275;-71
2022/11/02 06:05:42;;;;;;;5.70;2.08;;;;;;;;;;5036062;28;20041;-70
2022/11/02 06:08:30;;;;;;;4.88;2.53;;;;;;;;;;5036136;28;20037;-72
2022/11/02 06:11:15;;;;;;;4.72;2.13;;;;;;;;;;5034778;28;20040;-73
2022/11/02 06:14:02;;;;;;;4.70;2.00;;;;;;;;;;5037318;28;20033;-73
2022/11/02 06:16:47;;;;;;;5.10;1.90;;;;;;;;;;5037114;28;20037;-73
2022/11/02 06:19:32;;;;;;;4.97;2.60;;;;;;;;;;5034280;28;20499;-71
2022/11/02 06:22:18;;;;;;;5.00;2.38;;;;;;;;;;5036245;28;20032;-71
2022/11/02 06:25:03;;;;;;;6.20;2.33;;;;;;;;;;5034541;28;20234;-71
2022/11/02 06:27:49;;;;;;;5.97;2.15;;;;;;;;;;5016777;28;20029;-74
2022/11/02 06:30:34;;;;;;;7.93;2.33;;;;;;;;;;5035519;28;20036;-76
2022/11/02 06:33:20;;;;;;;7.75;2.42;;;;;;;;;;5025934;28;20396;-76
2022/11/02 06:36:05;;;;;;;7.72;2.67;;;;;;;;;;5048976;28;20040;-76
2022/11/02 06:38:51;;;;;;;7.97;1.88;;;;;;;;;;5036372;28;20033;-76
2022/11/02 06:41:36;;;;;;;7.63;1.83;;;;;;;;;;5036633;28;20036;-77
2022/11/02 06:44:21;;;;;;;5.45;1.90;;;;;;;;;;5037298;28;20037;-76
2022/11/02 06:47:06;;;;;;;5.88;2.30;;;;;;;;;;5025564;28;20053;-78
2022/11/02 06:49:52;;;;;;;6.38;2.40;;;;;;;;;;5035067;28;22190;-69
2022/11/02 06:52:41;;;;;;;6.32;2.42;;;;;;;;;;5034517;28;20536;-68
2022/11/02 06:55:26;;;;;;;8.57;2.20;;;;;;;;;;5031915;28;20033;-68
2022/11/02 06:58:11;;;;;;;6.75;1.88;;;;;;;;;;5037315;28;20048;-68
2022/11/02 07:01:01;;;;;;;5.22;1.95;;;;;;;;;;5021088;28;20017;-68
2022/11/02 07:03:46;;;;;;;5.70;2.92;;;;;;;;;;5051609;28;20039;-68
2022/11/02 07:06:31;;;;;;;5.78;2.05;;;;;;;;;;5049613;28;20068;-75
2022/11/02 07:09:17;;;;;;;8.55;2.30;;;;;;;;;;5025592;28;20024;-77
2022/11/02 07:12:02;;;;;;;6.50;3.15;;;;;;;;;;5036695;28;20116;-76
2022/11/02 07:14:47;;;;;;;4.10;2.38;;;;;;;;;;5037547;28;20032;-76
2022/11/02 07:17:32;;;;;;;11.02;3.97;;;;;;;;;;5021971;28;20032;-76
2022/11/02 07:20:18;;;;;;;6.82;2.47;;;;;;;;;;5036766;28;20600;-77
2022/11/02 07:23:03;;;;;;;5.35;2.35;;;;;;;;;;5036519;28;20098;-77
2022/11/02 07:25:49;;;;;;;9.57;2.70;;;;;;;;;;5035900;28;20512;-71
2022/11/02 07:28:36;;;;;;;9.10;2.45;;;;;;;;;;5003486;28;20382;-71
2022/11/02 07:31:22;;;;;;;6.30;2.80;;;;;;;;;;5015654;28;20068;-71
2022/11/02 07:34:07;;;;;;;8.55;2.40;;;;;;;;;;5028556;28;20467;-73
2022/11/02 07:36:53;;;;;;;9.57;2.05;;;;;;;;;;5034490;28;20400;-72
2022/11/02 07:39:39;;;;;;;7.32;3.38;;;;;;;;;;5036069;28;20043;-72
2022/11/02 07:42:24;;;;;;;5.10;1.85;;;;;;;;;;5035553;28;20033;-72
2022/11/02 07:45:10;;;;;;;4.60;2.03;;;;;;;;;;5036434;28;20082;-70
2022/11/02 07:47:55;;;;;;;4.35;2.00;;;;;;;;;;5041748;23;20100;-77
2022/11/02 07:50:40;;;;;;;6.40;2.42;;;;;;;;;;4997189;28;20042;-76
2022/11/02 07:53:25;;;;;;;10.07;2.83;;;;;;;;;;5009726;28;20473;-78
2022/11/02 07:56:10;;;;;;;10.63;2.42;;;;;;;;;;5001984;28;20025;-77
2022/11/02 07:58:56;;;;;;;5.10;2.40;;;;;;;;;;4982593;28;20100;-77
2022/11/02 08:01:41;;;;;;;8.18;2.22;;;;;;;;;;4996497;28;20032;-78
2022/11/02 08:04:28;;;;;;;9.38;2.28;;;;;;;;;;5015874;28;20033;-72
2022/11/02 08:07:14;;;;;;;6.80;2.20;;;;;;;;;;4997824;28;20042;-71
2022/11/02 08:09:59;;;;;;;8.60;2.05;;;;;;;;;;4982528;28;20488;-71
2022/11/02 08:12:44;;;;;;;7.97;2.10;;;;;;;;;;4995667;28;20018;-71
2022/11/02 08:15:30;;;;;;;8.45;2.05;;;;;;;;;;4993560;28;20073;-73
2022/11/02 08:18:19;;;;;;;6.63;2.03;;;;;;;;;;4993855;28;20040;-72
2022/11/02 08:21:04;;;;;;;13.23;2.35;;;;;;;;;;4996328;28;20473;-73
2022/11/02 08:23:50;;;;;;;8.73;2.90;;;;;;;;;;4982746;28;20107;-70
2022/11/02 08:26:35;;;;;;;10.80;2.35;;;;;;;;;;4984386;28;20468;-71
2022/11/02 08:29:20;;;;;;;10.77;2.25;;;;;;;;;;4982189;28;20049;-72
2022/11/02 08:32:06;;;;;;;7.85;2.45;;;;;;;;;;4995393;28;20041;-70
2022/11/02 08:34:51;;;;;;;10.13;3.17;;;;;;;;;;4981649;28;20551;-71
2022/11/02 08:37:36;;;;;;;7.45;2.15;;;;;;;;;;4995425;28;20080;-71
2022/11/02 08:40:21;;;;;;;5.13;2.17;;;;;;;;;;4981723;28;20017;-78
2022/11/02 08:43:08;;;;;;;4.95;1.73;;;;;;;;;;4996380;28;20025;-76
2022/11/02 08:45:56;;;;;;;7.13;2.08;;;;;;;;;;4994987;28;20033;-72
2022/11/02 08:48:41;;;;;;;4.97;1.92;;;;;;;;;;4998871;28;20049;-74
2022/11/02 08:51:26;;;;;;;8.10;2.15;;;;;;;;;;4997740;28;20104;-74
2022/11/02 08:54:12;;;;;;;7.53;3.45;;;;;;;;;;4982304;28;20014;-74
2022/11/02 08:56:57;;;;;;;7.10;2.13;;;;;;;;;;4982867;28;20034;-75
2022/11/02 09:02:16;;;;;;;14.18;2.60;;;;;;;;;;5052416;28;20063;-75
2022/11/02 09:05:01;;;;;;;7.97;2.00;;;;;;;;;;5043312;28;20041;-78
2022/11/02 09:07:46;;;;;;;8.77;1.77;;;;;;;;;;5040883;28;20029;-78
2022/11/02 09:10:33;;;;;;;9.43;2.53;;;;;;;;;;5033311;28;20025;-76
2022/11/02 09:13:23;;;;;;;3.97;1.52;;;;;;;;;;5046554;28;20515;-76
2022/11/02 09:16:08;;;;;;;4.50;1.52;;;;;;;;;;5047656;28;20026;-76
2022/11/02 09:18:53;;;;;;;3.50;1.33;;;;;;;;;;5037128;28;20480;-69
2022/11/02 09:21:39;;;;;;;6.00;1.65;;;;;;;;;;5030848;28;20036;-70
2022/11/02 09:24:24;;;;;;;6.78;2.25;;;;;;;;;;5054930;28;20036;-69
2022/11/02 09:27:09;;;;;;;9.30;1.67;;;;;;;;;;5031606;28;20041;-70
2022/11/02 09:29:54;;;;;;;4.25;1.60;;;;;;;;;;5040116;28;20028;-71
2022/11/02 09:32:39;;;;;;;4.90;1.50;;;;;;;;;;5034750;28;20472;-70
2022/11/02 09:35:26;;;;;;;5.95;2.05;;;;;;;;;;5046070;28;20055;-70
2022/11/02 09:38:11;;;;;;;5.60;1.40;;;;;;;;;;5037792;28;20029;-73
2022/11/02 09:40:57;;;;;;;5.57;1.92;;;;;;;;;;5055232;28;20136;-73
2022/11/02 09:43:51;;;;;;;9.18;1.85;;;;;;;;;;5042120;28;20441;-74
2022/11/02 09:46:37;;;;;;;9.27;2.35;;;;;;;;;;5049546;28;20109;-74
2022/11/02 09:49:24;;;;;;;5.97;2.28;;;;;;;;;;5018596;28;20391;-74
2022/11/02 09:52:22;;;;;;;14.00;2.42;;;;;;;;;;5034711;28;20024;-74
2022/11/02 09:55:14;;;;;;;6.13;1.73;;;;;;;;;;5047880;28;20020;-75
2022/11/02 09:58:02;;;;;;;10.55;2.35;;;;;;;;;;5035309;28;20040;-73
2022/11/02 10:00:50;;;;;;;9.60;1.80;;;;;;;;;;5052342;28;20052;-74
2022/11/02 10:03:41;;;;;;;5.85;1.95;;;;;;;;;;5034485;28;20083;-74
2022/11/02 10:06:28;;;;;;;8.15;2.70;;;;;;;;;;5018342;28;20036;-75
2022/11/02 10:09:21;;;;;;;5.03;1.73;;;;;;;;;;5038678;28;20059;-74
2022/11/02 10:12:11;;;;;;;7.32;1.92;;;;;;;;;;5054565;28;20028;-69
2022/11/02 10:14:56;;;;;;;9.13;2.35;;;;;;;;;;5042593;28;20028;-68
2022/11/02 10:17:42;;;;;;;6.22;1.83;;;;;;;;;;5041412;28;20032;-69
2022/11/02 10:20:31;;;;;;;12.57;1.70;;;;;;;;;;5038214;28;20297;-68
2022/11/02 10:23:25;;;;;;;5.57;1.60;;;;;;;;;;5025671;28;20033;-68
2022/11/02 10:26:15;;;;;;;5.65;1.40;;;;;;;;;;5048563;28;20043;-68
2022/11/02 10:29:05;;;;;;;6.18;1.50;;;;;;;;;;5039055;28;20025;-76
2022/11/02 10:31:50;;;;;;;;;;;;;;;;;;5022842;28;20070;-68
2022/11/02 10:34:35;;;;;;;7.80;2.10;;;;;;;;;;5041540;28;20355;-69
2022/11/02 10:37:20;;;;;;;4.05;1.50;;;;;;;;;;5024453;28;20029;-68
2022/11/02 10:40:12;;;;;;;9.57;2.03;;;;;;;;;;5045903;28;20036;-68
2022/11/02 10:43:07;;;;;;;12.90;2.90;;;;;;;;;;5054164;28;20028;-70
2022/11/02 10:45:52;;;;;;;11.73;2.45;;;;;;;;;;5050962;28;20032;-70
2022/11/02 10:48:51;;;;;;;5.43;1.92;;;;;;;;;;5052722;28;20111;-73
2022/11/02 10:51:36;;;;;;;6.32;1.88;;;;;;;;;;5039832;28;20468;-72
2022/11/02 10:54:21;;;;;;;8.82;2.03;;;;;;;;;;5034353;28;20036;-73
2022/11/02 10:57:27;;;;;;;9.70;2.30;;;;;;;;;;5038528;28;20492;-73
2022/11/02 11:00:23;;;;;;;7.40;1.60;;;;;;;;;;5049828;28;20045;-72
2022/11/02 11:03:10;;;;;;;9.68;2.45;;;;;;;;;;5057200;28;20064;-72
2022/11/02 11:05:59;;;;;;;6.68;1.80;;;;;;;;;;5049441;28;20025;-71
2022/11/02 11:08:48;;;;;;;12.45;3.00;;;;;;;;;;5044364;28;20053;-69
2022/11/02 11:11:35;;;;;;;8.77;2.63;;;;;;;;;;5040008;28;20032;-67
2022/11/02 11:14:22;;;;;;;5.70;1.90;;;;;;;;;;5056917;28;20475;-69
2022/11/02 11:17:15;;;;;;;7.18;2.20;;;;;;;;;;5042643;28;20079;-69
2022/11/02 11:20:02;;;;;;;9.15;2.55;;;;;;;;;;5040042;28;20495;-69
2022/11/02 11:23:05;;;;;;;9.27;2.90;;;;;;;;;;5051410;28;20039;-69
2022/11/02 11:25:58;;;;;;;5.18;1.92;;;;;;;;;;5052635;28;20029;-69
2022/11/02 11:28:54;;;;;;;5.38;2.15;;;;;;;;;;5044028;28;20025;-72
2022/11/02 11:31:39;;;;;;;9.00;2.92;;;;;;;;;;5050512;28;20124;-71
2022/11/02 11:34:26;;;;;;;9.45;2.13;;;;;;;;;;5037511;28;20060;-72
2022/11/02 11:37:13;;;;;;;5.63;1.52;;;;;;;;;;5032769;28;20035;-72
2022/11/02 11:40:03;;;;;;;5.38;1.88;;;;;;;;;;5055194;28;20075;-72
2022/11/02 11:42:49;;;;;;;10.15;2.50;;;;;;;;;;5055414;28;20028;-74
2022/11/02 11:45:35;;;;;;;6.15;1.80;;;;;;;;;;5056790;28;20020;-71
2022/11/02 11:48:29;;;;;;;6.30;2.10;;;;;;;;;;5031358;28;20483;-71
2022/11/02 11:51:20;;;;;;;10.57;1.77;;;;;;;;;;5033708;28;20031;-70
2022/11/02 11:54:12;;;;;;;6.57;2.15;;;;;;;;;;5038408;28;20037;-70
2022/11/02 11:57:17;;;;;;;7.53;1.95;;;;;;;;;;5048609;28;20032;-70
2022/11/02 12:00:22;;;;;;;8.07;1.70;;;;;;;;;;5014254;28;20075;-71
2022/11/02 12:03:12;;;;;;;7.07;2.28;;;;;;;;;;5042615;28;20043;-76
2022/11/02 12:06:12;;;;;;;5.85;2.10;;;;;;;;;;5055885;28;20064;-73
2022/11/02 12:09:02;;;;;;;6.43;1.90;;;;;;;;;;5035299;28;20059;-74
2022/11/02 12:11:47;;;;;;;8.95;2.58;;;;;;;;;;5053939;28;20024;-72
2022/11/02 12:14:36;;;;;;;6.65;2.03;;;;;;;;;;5040780;28;20103;-72
2022/11/02 12:17:31;;;;;;;5.30;2.00;;;;;;;;;;5045892;28;20031;-74
2022/11/02 12:20:16;;;;;;;5.45;1.73;;;;;;;;;;5029544;28;20037;-72
2022/11/02 12:23:07;;;;;;;13.20;3.42;;;;;;;;;;5051002;28;20032;-68
2022/11/02 12:26:16;;;;;;;9.30;2.60;;;;;;;;;;5050270;28;20029;-69
2022/11/02 12:29:10;;;;;;;10.25;2.47;;;;;;;;;;5033643;28;20033;-68
2022/11/02 12:31:55;;;;;;;9.68;2.35;;;;;;;;;;5027138;28;20068;-68
2022/11/02 12:34:43;;;;;;;9.15;1.90;;;;;;;;;;5041072;28;20116;-66
2022/11/02 12:37:45;;;;;;;6.72;2.25;;;;;;;;;;5039595;28;20032;-71
2022/11/02 12:40:49;;;;;;;4.45;1.75;;;;;;;;;;5042862;28;20040;-71
2022/11/02 12:43:38;;;;;;;5.78;1.80;;;;;;;;;;5053251;28;20463;-73
2022/11/02 12:46:45;;;;;;;5.82;1.83;;;;;;;;;;5050303;28;20032;-70
2022/11/02 12:49:47;;;;;;;7.80;1.85;;;;;;;;;;5036809;28;20538;-72
2022/11/02 12:52:55;;;;;;;6.68;1.80;;;;;;;;;;5028259;28;20515;-73
2022/11/02 12:55:42;;;;;;;9.52;2.50;;;;;;;;;;5039019;28;20020;-73
2022/11/02 12:58:30;;;;;;;8.05;2.00;;;;;;;;;;5053245;28;20063;-74
2022/11/02 13:01:34;;;;;;;6.45;1.75;;;;;;;;;;5043544;28;20087;-75
2022/11/02 13:04:31;;;;;;;8.75;2.58;;;;;;;;;;5038566;28;20040;-75
2022/11/02 13:07:25;;;;;;;6.50;2.10;;;;;;;;;;5027782;28;20070;-76
2022/11/02 13:10:19;;;;;;;5.78;1.88;;;;;;;;;;5042064;28;20163;-77
2022/11/02 13:13:09;;;;;;;6.38;1.75;;;;;;;;;;5029181;28;20033;-77
2022/11/02 13:15:55;;;;;;;8.95;3.25;;;;;;;;;;5046246;28;20412;-76
2022/11/02 13:18:48;;;;;;;7.30;1.92;;;;;;;;;;5041190;28;20063;-75
2022/11/02 13:21:38;;;;;;;8.35;1.80;;;;;;;;;;5044238;28;20031;-76
2022/11/02 13:24:29;;;;;;;5.97;1.73;;;;;;;;;;5054624;28;20060;-76
2022/11/02 13:27:26;;;;;;;9.20;2.28;;;;;;;;;;5033366;28;20541;-75
2022/11/02 13:30:16;;;;;;;5.80;1.83;;;;;;;;;;5030642;28;20078;-79
2022/11/02 13:33:01;;;;;;;;;;;;;;;;;;5043699;28;20029;-72
2022/11/02 13:35:49;;;;;;;8.13;1.90;;;;;;;;;;5045901;28;20353;-67
2022/11/02 13:38:37;;;;;;;8.05;1.65;;;;;;;;;;5041286;28;20051;-69
2022/11/02 13:41:42;;;;;;;7.25;2.00;;;;;;;;;;5050268;28;20427;-67
2022/11/02 13:44:46;;;;;;;6.10;1.70;;;;;;;;;;5054703;28;20036;-68
2022/11/02 13:47:40;;;;;;;9.75;2.28;;;;;;;;;;5015613;28;20530;-68
2022/11/02 13:50:27;;;;;;;6.85;1.60;;;;;;;;;;5032242;28;20048;-68
2022/11/02 13:53:19;;;;;;;10.18;2.17;;;;;;;;;;5034496;28;20114;-68
2022/11/02 13:56:10;;;;;;;9.35;2.10;;;;;;;;;;5028488;28;20490;-70
2022/11/02 13:59:01;;;;;;;8.63;2.22;;;;;;;;;;5046284;28;20040;-71
2022/11/02 14:01:47;;;;;;;9.07;2.35;;;;;;;;;;5047874;28;20052;-71
2022/11/02 14:04:37;;;;;;;11.35;2.58;;;;;;;;;;5027398;28;20020;-73
2022/11/02 14:07:26;;;;;;;5.18;1.63;;;;;;;;;;5044067;28;20033;-73
2022/11/02 14:10:16;;;;;;;7.38;2.70;;;;;;;;;;5048051;28;20028;-78
2022/11/02 14:13:02;;;;;;;6.30;1.70;;;;;;;;;;5050979;28;20151;-71
2022/11/02 14:15:51;;;;;;;5.47;1.77;;;;;;;;;;5053979;28;20032;-70
2022/11/02 14:18:36;;;;;;;7.97;1.45;;;;;;;;;;5038181;28;20056;-71
2022/11/02 14:21:41;;;;;;;10.23;2.00;;;;;;;;;;5046849;28;20494;-71
2022/11/02 14:24:33;;;;;;;9.35;2.45;;;;;;;;;;5054895;28;20120;-70
2022/11/02 14:27:20;;;;;;;10.45;2.40;;;;;;;;;;5047949;28;20498;-71
2022/11/02 14:30:25;;;;;;;11.50;2.67;;;;;;;;;;5011781;28;20392;-77
2022/11/02 14:33:30;;;;;;;6.53;1.77;;;;;;;;;;5040338;28;20118;-74
2022/11/02 14:36:15;;;;;;;6.68;2.00;;;;;;;;;;5041585;28;20037;-74
2022/11/02 14:39:19;;;;;;;15.15;2.50;;;;;;;;;;5025192;28;20077;-75
2022/11/02 14:42:24;;;;;;;10.77;2.72;;;;;;;;;;5033056;28;20112;-75
2022/11/02 14:45:16;;;;;;;18.58;3.50;;;;;;;;;;5029786;28;20072;-74
2022/11/02 14:48:03;;;;;;;11.45;2.72;;;;;;;;;;5040666;28;20037;-73
2022/11/02 14:50:59;;;;;;;7.80;2.25;;;;;;;;;;5041334;28;20032;-77
2022/11/02 14:53:45;;;;;;;7.13;2.55;;;;;;;;;;5037266;28;20029;-77
2022/11/02 14:56:49;;;;;;;9.77;3.03;;;;;;;;;;5046370;28;20032;-76
2022/11/02 14:59:36;;;;;;;11.57;3.40;;;;;;;;;;5038161;28;20041;-77
2022/11/02 15:02:38;;;;;;;9.80;2.22;;;;;;;;;;5048754;28;20033;-76
2022/11/02 15:05:29;;;;;;;4.72;1.88;;;;;;;;;;5044580;28;20063;-77
2022/11/02 15:08:14;;;;;;;9.40;2.47;;;;;;;;;;5029817;28;20056;-70
2022/11/02 15:11:20;;;;;;;11.27;2.33;;;;;;;;;;5042654;28;20189;-69
2022/11/02 15:14:24;;;;;;;11.55;3.08;;;;;;;;;;5043467;28;20036;-69
2022/11/02 15:17:09;;;;;;;9.73;3.35;;;;;;;;;;5028503;28;20442;-67
2022/11/02 15:19:57;;;;;;;9.82;2.40;;;;;;;;;;5038879;28;20076;-68
2022/11/02 15:22:42;;;;;;;10.07;2.70;;;;;;;;;;5050477;28;20028;-69
2022/11/02 15:25:35;;;;;;;9.45;2.60;;;;;;;;;;5017659;28;20020;-71
2022/11/02 15:28:27;;;;;;;9.50;2.45;;;;;;;;;;5023785;28;20028;-72
2022/11/02 15:31:17;;;;;;;8.80;2.13;;;;;;;;;;5046305;28;20082;-73
2022/11/02 15:34:08;;;;;;;13.13;3.13;;;;;;;;;;5048963;28;20044;-72
2022/11/02 15:36:54;;;;;;;6.25;2.15;;;;;;;;;;5043102;28;20054;-73
2022/11/02 15:39:39;;;;;;;3.80;1.80;;;;;;;;;;5051589;28;20048;-73
2022/11/02 15:42:41;;;;;;;12.27;2.28;;;;;;;;;;5047014;28;20032;-75
2022/11/02 15:45:26;;;;;;;7.95;2.28;;;;;;;;;;5018189;28;20028;-75
2022/11/02 15:48:17;;;;;;;7.97;3.13;;;;;;;;;;5041848;28;20112;-76
2022/11/02 15:51:21;;;;;;;12.05;3.97;;;;;;;;;;5017932;28;20366;-75
2022/11/02 15:54:36;;;;;;;9.85;3.55;;;;;;;;;;5046659;28;20471;-77
2022/11/02 15:57:37;;;;;;;12.63;3.50;;;;;;;;;;5041400;28;20036;-77
2022/11/02 16:00:29;;;;;;;11.20;4.07;;;;;;;;;;5055722;28;20092;-77
2022/11/02 16:03:16;;;;;;;13.43;3.78;;;;;;;;;;5025800;28;20049;-74
2022/11/02 16:06:01;;;;;;;8.70;3.78;;;;;;;;;;5025426;28;20115;-75
2022/11/02 16:08:46;;;;;;;10.80;3.10;;;;;;;;;;5040715;28;20111;-74
2022/11/02 16:11:31;;;;;;;9.60;2.97;;;;;;;;;;5029129;28;20024;-72
2022/11/02 16:14:17;;;;;;;9.30;3.90;;;;;;;;;;5048739;28;20123;-75
2022/11/02 16:17:02;;;;;;;13.73;3.50;;;;;;;;;;5047170;28;20478;-74
2022/11/02 16:19:48;;;;;;;10.45;3.15;;;;;;;;;;5037278;28;20123;-79
2022/11/02 16:22:34;;;;;;;18.92;3.97;;;;;;;;;;5045442;28;20090;-70
2022/11/02 16:25:29;;;;;;;10.30;2.65;;;;;;;;;;5055590;28;20029;-70
2022/11/02 16:28:21;;;;;;;7.32;3.15;;;;;;;;;;5034375;28;20025;-71
2022/11/02 16:31:07;;;;;;;11.50;2.80;;;;;;;;;;5055475;28;20085;-71
2022/11/02 16:33:57;;;;;;;11.73;3.30;;;;;;;;;;5049168;28;20498;-71
2022/11/02 16:36:42;;;;;;;9.35;2.30;;;;;;;;;;5044969;28;20054;-70
2022/11/02 16:39:30;;;;;;;7.30;2.65;;;;;;;;;;5044506;28;20036;-73
2022/11/02 16:42:23;;;;;;;11.45;3.10;;;;;;;;;;5026962;28;20053;-70
2022/11/02 16:45:27;;;;;;;11.60;2.93;;;;;;;;;;5015314;28;20036;-71
2022/11/02 16:48:15;;;;;;;10.38;3.35;;;;;;;;;;5014221;28;20025;-71
2022/11/02 16:51:02;;;;;;;10.55;2.80;;;;;;;;;;5007071;28;20471;-70
2022/11/02 16:53:47;;;;;;;11.50;2.70;;;;;;;;;;5010681;28;20063;-71
2022/11/02 16:56:33;;;;;;;9.63;3.05;;;;;;;;;;5015707;28;20121;-70
2022/11/02 16:59:20;;;;;;;11.82;3.05;;;;;;;;;;5028237;28;20037;-71
2022/11/02 17:02:10;;;;;;;7.57;2.90;;;;;;;;;;5026429;28;20477;-71
2022/11/02 17:04:56;;;;;;;10.90;3.50;;;;;;;;;;5025339;28;20476;-62